Latest Weather Observations for Walpole North

IDW60801

Issued at 1:05 pm WST Tuesday 21 October 2014 (issued every 30 minutes, with the page automatically refreshed every 10 minutes)

About weather observations | Map of weather stations | Latest weather observations for WA | Other Formats
Station Details ID: 009998 Name: NORTH WALPOLE Lat: -34.95 Lon: 116.72 Height: 73.0 m
Data from the previous 72 hours. | See also: Recent months at Walpole North
Date/Time
WST
Temp
°C
App
Temp
°C
Dew
Point
Rel
Hum
%
Delta-T
°C
Wind Press
QNH
hPa
Press
MSL
hPa
Rain
since 9 am
mm
Dir
 
Spd
km/h
Gust
km/h
Spd
kts
Gust
kts
21/01:00pm 17.4 15.4 10.3 63 3.8 SSE 11 19 6 10 1022.8 1022.7 0.2
21/12:30pm 17.3 15.8 10.4 64 3.7 S 9 15 5 8 1022.9 1022.8 0.2
21/12:00pm 16.5 14.3 9.2 62 3.8 SE 11 17 6 9 1022.8 1022.7 0.2
21/11:30am 16.0 14.1 9.0 63 3.6 SSE 9 17 5 9 1023.2 1023.1 0.2
21/11:00am 17.1 15.6 10.5 65 3.5 SSE 9 15 5 8 1023.4 1023.3 0.0
21/10:30am 16.7 15.2 10.5 67 3.3 S 9 15 5 8 1023.5 1023.4 0.0
21/10:00am 16.8 16.3 10.9 68 3.2 SSW 4 13 2 7 1023.3 1023.2 0.0
21/09:30am 15.1 14.2 9.2 68 3.0 SW 4 9 2 5 1023.3 1023.2 0.0
21/09:00am 14.9 13.1 9.5 70 2.8 WSW 9 15 5 8 1023.0 1022.9 1.6
21/08:30am 15.1 15.9 12.4 84 1.5 CALM 0 0 0 0 1022.7 1022.6 1.6
21/08:00am 13.8 14.7 13.0 95 0.4 CALM 0 0 0 0 1022.5 1022.4 1.6
21/07:30am 12.8 13.6 12.6 99 0.1 CALM 0 0 0 0 1022.1 1022.0 1.6
21/07:00am 11.9 12.4 11.7 99 0.1 CALM 0 0 0 0 1021.9 1021.8 1.6
21/06:30am 11.4 11.8 11.2 99 0.1 CALM 0 0 0 0 1021.7 1021.6 1.6
21/06:00am 11.0 11.3 10.8 99 0.1 W 0 0 0 0 1021.4 1021.3 1.6
21/05:30am 10.9 11.1 10.7 99 0.1 CALM 0 0 0 0 1021.1 1021.0 1.6
21/05:00am 11.4 11.8 11.2 99 0.1 CALM 0 0 0 0 1020.7 1020.6 1.6
21/04:30am 11.6 12.0 11.4 99 0.1 CALM 0 0 0 0 1020.3 1020.2 1.6
21/04:00am 11.6 12.0 11.4 99 0.1 CALM 0 0 0 0 1020.1 1020.0 1.6
21/03:30am 11.7 12.2 11.5 99 0.1 CALM 0 0 0 0 1020.0 1019.9 1.6
21/03:00am 11.9 12.4 11.7 99 0.1 CALM 0 0 0 0 1019.7 1019.7 1.6
21/02:30am 11.9 12.4 11.7 99 0.1 CALM 0 0 0 0 1019.3 1019.3 1.6
21/02:00am 11.7 12.2 11.5 99 0.1 CALM 0 0 0 0 1019.5 1019.5 1.6
21/01:30am 11.7 12.2 11.5 99 0.1 CALM 0 0 0 0 1019.5 1019.5 1.6
21/01:00am 11.7 12.2 11.5 99 0.1 CALM 0 0 0 0 1019.1 1019.1 1.6
21/12:30am 11.7 12.2 11.5 99 0.1 CALM 0 0 0 0 1019.1 1019.1 1.6
21/12:00am 11.6 12.0 11.4 99 0.1 W 0 0 0 0 1019.3 1019.3 1.6
 
Date/Time
WST
Temp
°C
App
Temp
°C
Dew
Point
Rel
Hum
%
Delta-T
°C
Wind Press
QNH
hPa
Press
MSL
hPa
Rain
since 9 am
mm
Dir
 
Spd
km/h
Gust
km/h
Spd
kts
Gust
kts
20/11:30pm 11.7 12.2 11.5 99 0.1 CALM 0 0 0 0 1019.5 1019.5 1.6
20/11:00pm 11.5 11.9 11.3 99 0.1 CALM 0 0 0 0 1019.5 1019.5 1.6
20/10:30pm 11.9 12.4 11.7 99 0.1 CALM 0 0 0 0 1019.6 1019.6 1.6
20/10:00pm 12.3 13.0 12.1 99 0.1 CALM 0 0 0 0 1019.6 1019.6 1.6
20/09:30pm 12.4 11.9 12.2 99 0.1 W 6 9 3 5 1020.2 1020.1 1.6
20/09:00pm 12.6 12.0 12.4 99 0.1 SW 7 13 4 7 1020.3 1020.2 1.6
20/08:30pm 12.2 10.7 11.9 98 0.2 SSW 11 17 6 9 1020.2 1020.1 1.4
20/08:00pm 12.5 11.1 12.2 98 0.2 SW 11 17 6 9 1019.9 1019.8 1.4
20/07:30pm 12.6 11.2 12.1 97 0.3 SW 11 17 6 9 1019.5 1019.5 1.4
20/07:00pm 12.7 11.6 12.1 96 0.3 SW 9 15 5 8 1019.4 1019.4 1.0
20/06:30pm 13.0 11.1 11.9 93 0.6 SW 13 24 7 13 1019.1 1019.1 0.8
20/06:00pm 13.3 11.3 11.5 89 1.0 SW 13 20 7 11 1018.7 1018.7 0.4
20/05:30pm 14.3 12.0 11.6 84 1.5 SW 15 28 8 15 1018.4 1018.4 0.4
20/05:00pm 14.5 11.4 11.5 82 1.6 SW 19 32 10 17 1018.1 1018.1 0.4
20/04:30pm 15.0 12.3 11.8 81 1.7 SW 17 28 9 15 1017.7 1017.7 0.4
20/04:00pm 15.3 12.3 11.9 80 1.8 SW 19 33 10 18 1017.4 1017.4 0.4
20/03:30pm 15.4 12.6 12.7 84 1.5 SW 19 32 10 17 1016.9 1016.9 0.4
20/03:00pm 14.8 13.3 13.0 89 1.0 SW 13 22 7 12 1016.7 1016.7 0.4
20/02:30pm 15.1 12.2 12.8 86 1.3 SW 20 37 11 20 1016.7 1016.7 0.4
20/02:00pm 15.8 13.5 13.1 84 1.5 SW 17 26 9 14 1016.2 1016.2 0.4
20/01:30pm 15.6 13.0 13.3 86 1.3 SW 19 32 10 17 1016.0 1016.0 0.4
20/01:00pm 15.8 14.2 14.0 89 1.0 SW 15 24 8 13 1015.9 1015.9 0.2
20/12:30pm 15.3 11.8 13.5 89 1.0 SSW 24 37 13 20 1015.9 1015.9 0.0
20/12:00pm 15.6 13.3 14.1 91 0.9 SSW 19 30 10 16 1015.7 1015.7 0.0
20/11:30am 16.1 13.7 15.3 95 0.5 S 22 35 12 19 1015.4 1015.4 0.0
20/11:00am 16.7 15.1 16.4 98 0.2 SSW 20 33 11 18 1015.6 1015.6 0.0
20/10:30am 15.9 14.9 15.7 99 0.1 SSW 15 30 8 16 1015.4 1015.4 0.0
20/10:00am 16.4 15.3 16.4 100 0.0 S 17 30 9 16 1015.3 1015.3 0.0
20/09:30am 15.8 13.9 15.8 100 0.0 S 20 32 11 17 1015.4 1015.4 0.0
20/09:00am 15.3 13.4 15.3 100 0.0 S 19 28 10 15 1015.2 1015.2 19.2
20/08:30am 14.4 13.3 14.4 100 0.0 S 13 20 7 11 1015.0 1015.0 19.0
20/08:00am 14.3 13.6 14.3 100 0.0 S 11 20 6 11 1014.9 1014.9 18.6
20/07:30am 14.1 13.3 14.1 100 0.0 S 11 22 6 12 1014.6 1014.6 18.2
20/07:00am 13.9 12.3 13.9 100 0.0 SSE 15 28 8 15 1014.3 1014.3 17.8
20/06:30am 13.8 12.2 13.8 100 0.0 SSE 15 28 8 15 1014.1 1014.1 17.4
20/06:00am 13.8 12.9 13.8 100 0.0 S 11 20 6 11 1013.7 1013.7 17.2
20/05:30am 13.6 12.7 13.6 100 0.0 SSE 11 24 6 13 1013.5 1013.5 16.8
20/05:00am 13.5 11.8 13.5 100 0.0 SSE 15 30 8 16 1013.4 1013.4 16.4
20/04:30am 13.5 10.9 13.3 99 0.1 S 19 37 10 20 1013.2 1013.1 15.6
20/04:00am 13.5 12.1 13.3 99 0.1 S 13 28 7 15 1013.1 1013.0 15.0
20/03:30am 13.4 11.2 13.2 99 0.1 S 17 41 9 22 1012.8 1012.7 14.4
20/03:00am 13.2 11.3 13.0 99 0.1 SSE 15 32 8 17 1013.1 1013.0 12.8
20/02:30am 13.1 10.8 12.9 99 0.1 S 17 37 9 20 1013.5 1013.5 10.2
20/02:00am 13.0 10.6 12.8 99 0.1 S 17 35 9 19 1013.8 1013.8 7.0
20/01:30am 13.1 11.0 12.5 96 0.3 SSE 15 30 8 16 1014.1 1014.1 5.2
20/01:00am 13.5 11.1 12.7 95 0.4 SSE 17 33 9 18 1014.5 1014.5 4.6
20/12:30am 13.4 10.6 12.5 94 0.5 SSE 19 33 10 18 1014.6 1014.6 4.6
20/12:00am 13.2 10.3 12.3 94 0.5 SSE 19 39 10 21 1014.8 1014.8 4.6
 
Date/Time
WST
Temp
°C
App
Temp
°C
Dew
Point
Rel
Hum
%
Delta-T
°C
Wind Press
QNH
hPa
Press
MSL
hPa
Rain
since 9 am
mm
Dir
 
Spd
km/h
Gust
km/h
Spd
kts
Gust
kts
19/11:30pm 13.1 9.6 12.2 94 0.5 SSE 22 43 12 23 1015.1 1015.1 4.4
19/11:00pm 12.9 8.9 11.8 93 0.6 SSE 24 39 13 21 1015.7 1015.7 4.4
19/10:30pm 12.9 8.1 11.6 92 0.7 SSE 28 46 15 25 1016.2 1016.2 4.4
19/10:08pm 12.9 8.2 12.0 94 0.5 SE 28 46 15 25 1016.5 1016.5 4.4
19/10:00pm 12.9 7.8 12.0 94 0.5 SE 30 44 16 24 1016.5 1016.5 4.4
19/09:30pm 12.6 8.3 12.0 96 0.3 SE 26 37 14 20 1016.7 1016.7 4.4
19/09:00pm 12.5 8.6 12.0 97 0.3 SE 24 35 13 19 1017.1 1017.1 4.4
19/08:30pm 12.5 8.6 12.0 97 0.3 SE 24 37 13 20 1017.1 1017.1 4.0
19/08:00pm 12.4 7.6 11.8 96 0.3 SE 28 43 15 23 1017.5 1017.5 3.8
19/07:30pm 12.2 8.6 11.7 97 0.3 SE 22 32 12 17 1017.5 1017.5 3.8
19/07:00pm 12.1 8.0 11.5 96 0.3 SE 24 35 13 19 1017.5 1017.5 3.0
19/06:30pm 12.0 7.4 11.2 95 0.4 SE 26 39 14 21 1017.7 1017.7 2.8
19/06:00pm 11.9 8.6 11.0 94 0.5 SE 19 24 10 13 1018.0 1018.0 2.4
19/05:30pm 11.7 8.3 10.6 93 0.6 ESE 19 30 10 16 1018.6 1018.6 2.2
19/05:00pm 11.8 8.4 10.5 92 0.7 ESE 19 30 10 16 1018.8 1018.8 1.8
19/04:30pm 12.1 9.1 10.5 90 0.8 ESE 17 22 9 12 1018.6 1018.6 1.0
19/04:00pm 12.1 8.4 10.0 87 1.1 ESE 20 32 11 17 1018.5 1018.5 1.0
19/03:30pm 12.7 8.5 9.7 82 1.5 ESE 22 32 12 17 1017.9 1017.9 0.8
19/03:00pm 13.0 9.3 10.2 83 1.4 ESE 20 30 11 16 1017.7 1017.7 0.8
19/02:30pm 12.4 9.4 10.5 88 1.0 ESE 17 26 9 14 1017.9 1017.9 0.8
19/02:00pm 11.8 8.7 10.4 91 0.7 ESE 17 22 9 12 1018.2 1018.2 0.8
19/01:30pm 11.9 7.9 10.3 90 0.8 ESE 22 32 12 17 1018.8 1018.8 0.4
19/01:00pm 12.1 7.2 10.0 87 1.1 ESE 26 39 14 21 1019.0 1019.0 0.2
19/12:30pm 12.4 7.1 10.0 85 1.2 ESE 28 52 15 28 1019.1 1019.1 0.2
19/12:24pm 12.5 7.2 9.9 84 1.3 ESE 28 52 15 28 1019.2 1019.2 0.2
19/12:00pm 12.3 7.7 9.7 84 1.3 ESE 24 39 13 21 1019.3 1019.3 0.0
19/11:43am 12.5 7.1 9.5 82 1.5 ESE 28 50 15 27 1019.4 1019.4 0.0
19/11:30am 12.7 7.6 9.3 80 1.7 ESE 26 37 14 20 1019.6 1019.6 0.0
19/11:12am 13.0 7.4 8.9 76 2.1 ESE 28 52 15 28 1019.7 1019.7 0.0
19/11:00am 13.6 8.9 9.3 75 2.2 ESE 24 37 13 20 1019.7 1019.7 0.0
19/10:30am 13.5 9.6 9.4 76 2.1 ESE 20 32 11 17 1020.2 1020.1 0.0
19/10:00am 13.2 9.3 9.5 78 1.9 ESE 20 30 11 16 1020.3 1020.2 0.0
19/09:30am 12.2 7.7 9.9 86 1.2 ESE 24 33 13 18 1020.6 1020.5 0.0
19/09:00am 12.4 8.9 10.1 86 1.2 ESE 19 26 10 14 1020.9 1020.8 6.8
19/08:30am 12.1 7.5 9.7 85 1.2 ESE 24 41 13 22 1021.2 1021.1 6.8
19/08:00am 12.3 7.2 9.3 82 1.5 ESE 26 43 14 23 1021.2 1021.1 6.8
19/07:30am 12.7 8.6 10.2 85 1.3 ESE 22 33 12 18 1020.9 1020.8 6.6
19/07:00am 12.0 8.0 10.4 90 0.8 ESE 22 35 12 19 1020.5 1020.4 6.6
19/06:30am 11.8 8.9 11.0 95 0.4 E 17 32 9 17 1020.5 1020.4 6.6
19/06:00am 11.2 7.3 10.9 98 0.2 ESE 22 35 12 19 1020.3 1020.2 6.6
19/05:30am 11.2 7.7 11.0 99 0.1 ESE 20 33 11 18 1020.0 1019.9 6.6
19/05:00am 11.2 8.3 11.0 99 0.1 E 17 24 9 13 1020.2 1020.1 6.2
19/04:30am 11.0 8.8 10.8 99 0.1 E 13 20 7 11 1020.0 1019.9 5.2
19/04:00am 11.1 9.3 10.9 99 0.1 E 11 17 6 9 1020.1 1020.0 5.0
19/03:30am 11.1 8.1 10.8 98 0.2 E 17 22 9 12 1020.2 1020.1 4.2
19/03:00am 11.3 8.4 11.0 98 0.2 ESE 17 28 9 15 1020.5 1020.4 3.8
19/02:30am 11.3 7.8 10.8 97 0.3 ESE 20 30 11 16 1020.5 1020.4 3.4
19/02:00am 11.2 7.6 10.6 96 0.3 ESE 20 30 11 16 1020.5 1020.4 3.4
19/01:30am 11.3 7.9 10.5 95 0.4 E 19 28 10 15 1020.7 1020.6 3.4
19/01:00am 11.2 8.2 10.6 96 0.3 ESE 17 24 9 13 1020.5 1020.4 3.2
19/12:30am 11.3 8.3 10.8 97 0.3 ESE 17 24 9 13 1020.9 1020.8 3.2
19/12:00am 11.3 7.7 10.7 96 0.3 SE 20 28 11 15 1020.9 1020.8 3.0
 
Date/Time
WST
Temp
°C
App
Temp
°C
Dew
Point
Rel
Hum
%
Delta-T
°C
Wind Press
QNH
hPa
Press
MSL
hPa
Rain
since 9 am
mm
Dir
 
Spd
km/h
Gust
km/h
Spd
kts
Gust
kts
18/11:30pm 11.5 8.5 10.7 95 0.4 E 17 28 9 15 1020.9 1020.8 2.6
18/11:00pm 11.5 8.5 10.6 94 0.5 ESE 17 28 9 15 1021.0 1020.9 1.8
18/10:30pm 11.5 7.8 10.2 92 0.7 E 20 35 11 19 1021.3 1021.2 1.4
18/10:00pm 11.8 7.1 9.2 84 1.3 E 24 32 13 17 1021.3 1021.2 0.8
18/09:30pm 13.2 8.5 9.1 76 2.1 ESE 24 33 13 18 1020.9 1020.8 0.2
18/09:01pm 13.3 7.8 9.0 75 2.2 ESE 28 46 15 25 1020.6 1020.5 0.2
18/09:00pm 13.0 7.8 8.7 75 2.2 ESE 26 46 14 25 1020.6 1020.5 0.2
18/08:30pm 13.0 7.8 8.9 76 2.1 ESE 26 37 14 20 1020.5 1020.4 0.2
18/08:00pm 13.1 8.3 8.8 75 2.2 ESE 24 39 13 21 1020.3 1020.2 0.2
18/07:30pm 13.2 7.7 9.3 77 2.0 SE 28 39 15 21 1020.0 1019.9 0.2
18/07:00pm 13.5 8.6 8.6 72 2.5 SE 24 39 13 21 1019.2 1019.2 0.2
18/06:30pm 13.7 8.5 9.0 73 2.4 ESE 26 37 14 20 1018.9 1018.9 0.2
18/06:00pm 13.6 9.5 8.7 72 2.5 SE 20 33 11 18 1018.5 1018.5 0.2
18/05:30pm 13.8 8.8 8.2 69 2.8 SE 24 37 13 20 1018.2 1018.2 0.2
18/05:00pm 13.9 8.5 8.1 68 2.9 ESE 26 35 14 19 1018.1 1018.1 0.2
18/04:30pm 14.3 9.0 8.5 68 2.9 SE 26 41 14 22 1018.0 1018.0 0.2
18/04:00pm 14.0 7.3 8.2 68 2.9 SE 33 44 18 24 1018.0 1018.0 0.2
18/03:42pm 14.3 8.6 8.5 68 2.9 ESE 28 46 15 25 1017.8 1017.8 0.2
18/03:30pm 14.2 9.4 8.8 70 2.7 ESE 24 37 13 20 1017.7 1017.7 0.2
18/03:00pm 14.2 8.2 8.6 69 2.8 SE 30 43 16 23 1017.7 1017.7 0.2
18/02:30pm 14.3 9.5 8.9 70 2.7 ESE 24 37 13 20 1017.7 1017.7 0.2
18/02:00pm 14.1 8.5 8.9 71 2.6 SE 28 41 15 22 1017.7 1017.7 0.2
18/01:30pm 14.2 8.8 9.4 73 2.5 ESE 28 43 15 23 1017.6 1017.6 0.2

Other Formats:

Comma delimited format used in spreadsheet applications
http://www.bom.gov.au/fwo/IDW60801/IDW60801.95647.axf

JavaScript Object Notation format (JSON) in row-major order
http://www.bom.gov.au/fwo/IDW60801/IDW60801.95647.json